首页
METAR-TAF:

METAR-TAF

机场 :

乌斯怀亚国际机场

乌斯怀亚, 阿根廷

纬度: 54-48S, 经度: 068-19W, 海拔: 16米

当前天气观测

该预报发布于3小时和0分钟前的23:00 UTC
风速20节,风向西南
温度 6°C
湿度 52%
气压 1017 hPa
能见度10公里或以上
少量云层高于4500英尺

METAR: SAWH 212300Z 23020KT 9999 FEW045 06/M03 Q1017

时间: 23:00 (02:00 UTC)

预报

该预报发布于3小时和0分钟前的23:00 UTC
预报有效从22日的 00点(UTC)到 22日的 24点(UTC)
风速12节,风向西南
能见度10公里或以上
散云层高于2000英尺
散云层高于4000英尺
成为
从 22日的 13点(UTC)到 22日的 15点(UTC)
风速20节,风向西南
多云层高于2300英尺

TAF: SAWH 212300Z 2200/2224 23012KT 9999 SCT020 SCT040 TX14/2219Z TN00/2210Z BECMG 2213/2215 23020KT BKN023

超过4000个机场的气象观测和天气预报(METAR&TAF报告)。

可查询的气象台以黄色和红色小点在地图上表示。

将鼠标移到小点上方,可查看气象台名称。

然后点击查看天气观测和预报。

如需切换地图:点击带黑十字的绿色按钮放大地图;点击带横线的绿色按钮缩小地图;或者点击绿色箭头查看邻近地区的地图。


METAR-TAF: